createdAt,value
2022-08-14T00:02:46.948Z,95815.46
2022-08-14T00:06:29.097Z,95815.40
2022-08-14T00:10:50.179Z,95810.41
2022-08-14T00:13:52.714Z,95803.48
2022-08-14T00:31:47.462Z,95799.53
2022-08-14T00:35:17.812Z,95793.38
2022-08-14T00:38:53.613Z,95789.93
2022-08-14T00:43:03.036Z,95787.18
2022-08-14T00:46:32.395Z,95786.16
2022-08-14T00:49:30.183Z,95786.29
2022-08-14T00:53:01.577Z,95783.00
2022-08-14T00:56:31.567Z,95784.46
2022-08-14T01:03:52.947Z,95777.15
2022-08-14T01:10:40.276Z,95775.25
2022-08-14T01:13:42.921Z,95770.20
2022-08-14T01:16:20.564Z,95767.22
2022-08-14T01:19:08.969Z,95770.85
2022-08-14T01:21:46.724Z,95771.14
2022-08-14T01:24:28.956Z,95768.89
2022-08-14T01:27:07.068Z,95766.08
2022-08-14T01:30:00.695Z,95767.00
2022-08-14T01:32:37.325Z,95766.17
2022-08-14T01:35:20.850Z,95764.70
2022-08-14T01:38:10.345Z,95765.80
2022-08-14T01:40:41.792Z,95771.63
2022-08-14T01:43:14.827Z,95773.11
2022-08-14T01:45:48.909Z,95775.34
2022-08-14T01:48:20.833Z,95774.00
2022-08-14T01:50:49.857Z,95773.17
2022-08-14T01:53:19.651Z,95774.65
2022-08-14T01:55:52.810Z,95773.96
2022-08-14T01:58:28.777Z,95768.22
2022-08-14T02:00:58.578Z,95763.48
2022-08-14T02:03:31.043Z,95761.20
2022-08-14T02:06:03.982Z,95759.30
2022-08-14T02:08:53.014Z,95759.59
2022-08-14T02:11:25.474Z,95765.14
2022-08-14T02:14:06.812Z,95761.61
2022-08-14T02:16:40.494Z,95765.43
2022-08-14T02:19:14.958Z,95762.20
2022-08-14T02:21:50.464Z,95763.13
2022-08-14T02:24:38.950Z,95759.48
2022-08-14T02:28:22.972Z,95760.27
2022-08-14T02:30:02.126Z,95763.19
2022-08-14T02:32:36.556Z,95762.36
2022-08-14T02:35:13.899Z,95767.99
2022-08-14T02:37:48.032Z,95767.02
2022-08-14T02:40:32.361Z,95765.73
2022-08-14T02:43:05.467Z,95768.39
2022-08-14T02:45:38.426Z,95765.90
2022-08-14T02:49:04.770Z,95762.79
2022-08-14T02:51:04.676Z,95766.30
2022-08-14T02:53:34.212Z,95767.87
2022-08-14T02:56:29.601Z,95763.39
2022-08-14T02:58:57.391Z,95766.82
2022-08-14T03:01:31.283Z,95763.40
2022-08-14T03:04:12.608Z,95766.14
2022-08-14T03:06:58.130Z,95767.86
2022-08-14T03:10:25.071Z,95772.01
2022-08-14T03:12:26.928Z,95775.63
2022-08-14T03:15:14.318Z,95779.64
2022-08-14T03:17:57.652Z,95777.65
2022-08-14T03:20:28.706Z,95780.27
2022-08-14T03:23:02.734Z,95783.20
2022-08-14T03:25:37.324Z,95784.81
2022-08-14T03:28:14.788Z,95789.88
2022-08-14T03:30:57.920Z,95790.59
2022-08-14T03:33:38.289Z,95792.02
2022-08-14T03:37:37.719Z,95791.86
2022-08-14T03:39:12.323Z,95794.42
2022-08-14T03:41:51.726Z,95791.70
2022-08-14T03:45:26.684Z,95799.26
2022-08-14T03:47:15.350Z,95799.79
2022-08-14T03:50:27.781Z,95803.03
2022-08-14T04:00:45.066Z,95798.58
2022-08-14T04:04:03.978Z,95800.59
2022-08-14T04:10:50.247Z,95801.77
2022-08-14T04:14:25.905Z,95800.91
2022-08-14T04:28:01.575Z,95800.52
2022-08-14T04:38:42.472Z,95805.23
2022-08-14T04:45:41.611Z,95806.35
2022-08-14T04:59:35.946Z,95803.66
2022-08-14T05:03:01.748Z,95799.89
2022-08-14T05:06:49.196Z,95798.28
2022-08-14T05:14:34.362Z,95795.97
2022-08-14T05:18:17.365Z,95801.88
2022-08-14T05:29:07.972Z,95805.39
2022-08-14T05:32:53.672Z,95800.10
2022-08-14T05:36:22.412Z,95798.52
2022-08-14T05:40:11.099Z,95797.51
2022-08-14T05:44:20.617Z,95795.30
2022-08-14T05:47:46.611Z,95800.44
2022-08-14T05:54:41.797Z,95803.14
2022-08-14T06:01:25.876Z,95811.26
2022-08-14T06:05:08.685Z,95800.22
2022-08-14T06:08:35.811Z,95798.74
2022-08-14T06:11:57.719Z,95798.64
2022-08-14T06:15:08.834Z,95799.45
2022-08-14T06:18:31.969Z,95797.87
2022-08-14T06:21:43.618Z,95798.48
2022-08-14T06:24:59.185Z,95796.05
2022-08-14T06:28:27.314Z,95794.52
2022-08-14T06:31:38.652Z,95791.23
2022-08-14T06:35:02.594Z,95791.23
2022-08-14T06:38:17.390Z,95789.61
2022-08-14T06:41:57.137Z,95786.20
2022-08-14T06:48:26.707Z,95788.23
2022-08-14T06:55:25.924Z,95786.63
2022-08-14T06:58:58.633Z,95786.30
2022-08-14T07:05:22.950Z,95789.78
2022-08-14T07:11:50.734Z,95786.69
2022-08-14T07:15:16.340Z,95788.54
2022-08-14T07:18:37.092Z,95782.40
2022-08-14T07:21:57.732Z,95777.11
2022-08-14T07:25:06.682Z,95772.73
2022-08-14T07:28:22.698Z,95766.54
2022-08-14T07:31:35.597Z,95766.22
2022-08-14T07:34:55.641Z,95764.78
2022-08-14T07:38:10.650Z,95759.83
2022-08-14T07:41:34.122Z,95759.29
2022-08-14T07:44:52.649Z,95755.61
2022-08-14T07:48:15.038Z,95764.83
2022-08-14T07:55:05.621Z,95764.27
2022-08-14T07:58:33.854Z,95766.60
2022-08-14T08:01:51.920Z,95761.95
2022-08-14T08:05:08.593Z,95762.42
2022-08-14T08:08:27.167Z,95761.98
2022-08-14T08:18:49.653Z,95755.89
2022-08-14T08:22:00.640Z,95748.70
2022-08-14T08:25:13.456Z,95751.91
2022-08-14T08:35:12.364Z,95745.64
2022-08-14T08:39:15.316Z,95749.99
2022-08-14T08:45:37.635Z,95743.70
2022-08-14T08:48:53.689Z,95739.27
2022-08-14T08:52:07.903Z,95735.86
2022-08-14T08:55:50.523Z,95732.17
2022-08-14T08:59:05.438Z,95731.05
2022-08-14T09:02:20.959Z,95729.60
2022-08-14T09:05:35.668Z,95725.61
2022-08-14T09:08:48.733Z,95721.36
2022-08-14T09:12:00.597Z,95720.91
2022-08-14T09:21:55.029Z,95714.02
2022-08-14T09:28:10.679Z,95710.85
2022-08-14T09:31:17.240Z,95706.55
2022-08-14T09:34:27.927Z,95702.35
2022-08-14T09:41:09.892Z,95694.79
2022-08-14T09:51:51.831Z,95677.09
2022-08-14T09:55:06.781Z,95674.15
2022-08-14T10:01:16.731Z,95672.80
2022-08-14T10:04:35.960Z,95670.55
2022-08-14T10:07:50.646Z,95666.39
2022-08-14T10:14:37.711Z,95667.48
2022-08-14T10:18:19.122Z,95664.15
2022-08-14T10:21:30.702Z,95658.23
2022-08-14T10:24:53.642Z,95653.32
2022-08-14T10:31:44.853Z,95647.05
2022-08-14T10:42:39.678Z,95643.81
2022-08-14T10:45:46.426Z,95640.34
2022-08-14T10:49:37.733Z,95636.20
2022-08-14T10:55:45.245Z,95632.16
2022-08-14T11:18:50.766Z,95610.77
2022-08-14T11:21:40.136Z,95608.55
2022-08-14T11:24:54.703Z,95607.09
2022-08-14T11:27:06.223Z,95603.77
2022-08-14T11:29:36.961Z,95605.38
2022-08-14T11:32:07.372Z,95604.63
2022-08-14T11:34:38.213Z,95604.98
2022-08-14T11:37:23.538Z,95606.80
2022-08-14T11:40:01.947Z,95599.50
2022-08-14T11:43:08.096Z,95595.56
2022-08-14T11:45:23.026Z,95596.67
2022-08-14T11:49:02.294Z,95592.53
2022-08-14T11:52:02.987Z,95592.39
2022-08-14T11:58:38.715Z,95594.34
2022-08-14T12:02:00.230Z,95588.69
2022-08-14T12:05:09.341Z,95589.89
2022-08-14T12:08:52.666Z,95584.03
2022-08-14T12:11:51.712Z,95580.55
2022-08-14T12:18:19.874Z,95580.19
2022-08-14T12:21:32.281Z,95582.84
2022-08-14T12:24:35.760Z,95583.44
2022-08-14T12:27:52.544Z,95577.28
2022-08-14T12:31:11.696Z,95574.48
2022-08-14T12:34:20.632Z,95574.00
2022-08-14T12:37:47.352Z,95572.57
2022-08-14T12:40:46.691Z,95569.36
2022-08-14T12:43:41.727Z,95566.51
2022-08-14T12:46:39.750Z,95566.85
2022-08-14T12:49:34.724Z,95570.12
2022-08-14T12:53:14.014Z,95566.99
2022-08-14T12:56:32.707Z,95560.73
2022-08-14T13:00:22.163Z,95552.70
2022-08-14T13:03:24.747Z,95546.77
2022-08-14T13:06:36.620Z,95536.67
2022-08-14T13:09:53.753Z,95532.63
2022-08-14T13:13:12.381Z,95528.59
2022-08-14T13:16:20.492Z,95527.44
2022-08-14T13:19:18.742Z,95524.55
2022-08-14T13:22:59.072Z,95521.04
2022-08-14T13:26:10.231Z,95514.98
2022-08-14T13:29:18.388Z,95507.89
2022-08-14T13:32:15.005Z,95498.73
2022-08-14T13:35:23.668Z,95489.06
2022-08-14T13:42:02.002Z,95486.45
2022-08-14T13:45:04.833Z,95486.80
2022-08-14T13:48:36.120Z,95487.42
2022-08-14T13:51:46.825Z,95494.59
2022-08-14T13:55:03.125Z,95497.82
2022-08-14T13:58:36.638Z,95503.36
2022-08-14T14:01:28.500Z,95512.91
2022-08-14T14:04:56.550Z,95517.35
2022-08-14T14:08:46.021Z,95525.05
2022-08-14T14:12:36.540Z,95519.77
2022-08-14T14:16:00.732Z,95524.96
2022-08-14T14:23:22.693Z,95529.40
2022-08-14T14:26:58.997Z,95536.21
2022-08-14T14:30:52.093Z,95533.78
2022-08-14T14:34:07.527Z,95526.51
2022-08-14T14:37:20.718Z,95523.18
2022-08-14T14:40:54.479Z,95519.31
2022-08-14T14:44:16.570Z,95512.23
2022-08-14T14:47:41.993Z,95509.05
2022-08-14T14:50:43.713Z,95516.09
2022-08-14T14:53:57.661Z,95528.35
2022-08-14T14:57:09.143Z,95541.07
2022-08-14T15:00:31.174Z,95543.64
2022-08-14T15:09:45.696Z,95572.15
2022-08-14T15:13:10.266Z,95581.08
2022-08-14T15:16:22.379Z,95585.14
2022-08-14T15:20:30.084Z,95662.00
2022-08-14T15:23:45.171Z,95647.40
2022-08-14T15:27:01.696Z,95628.69
2022-08-14T15:30:32.288Z,95602.37
2022-08-14T15:34:41.027Z,95595.95
2022-08-14T15:42:09.285Z,95669.05
2022-08-14T15:45:28.362Z,95693.31
2022-08-14T15:48:37.776Z,95709.16
2022-08-14T15:54:54.813Z,95677.92
2022-08-14T17:10:30.025Z,95676.63
2022-08-14T17:15:03.514Z,95679.68
2022-08-14T17:25:31.253Z,95677.42
2022-08-14T17:32:28.032Z,95663.62
2022-08-14T17:41:37.583Z,95649.05
2022-08-14T17:49:09.897Z,95634.73
2022-08-14T17:52:42.814Z,95627.80
2022-08-14T18:02:57.181Z,95635.19
2022-08-14T18:14:07.931Z,95627.44
2022-08-14T18:17:24.463Z,95617.45
2022-08-14T18:21:42.984Z,95608.05
2022-08-14T18:28:18.057Z,95609.54
2022-08-14T18:32:18.309Z,95615.55
2022-08-14T18:35:59.269Z,95625.67
2022-08-14T18:38:45.639Z,95622.46
2022-08-14T18:41:37.221Z,95627.81
2022-08-14T18:45:28.928Z,95635.64
2022-08-14T18:48:50.941Z,95643.08
2022-08-14T18:52:41.862Z,95649.02
2022-08-14T18:55:53.234Z,95650.85
2022-08-14T18:58:47.531Z,95649.63
2022-08-14T19:01:39.185Z,95653.10
2022-08-14T19:05:37.582Z,95654.11
2022-08-14T19:08:42.202Z,95660.35
2022-08-14T19:15:13.974Z,95657.24
2022-08-14T19:15:59.377Z,95653.69
2022-08-14T19:19:17.197Z,95653.88
2022-08-14T19:26:33.939Z,95647.83
2022-08-14T19:29:23.771Z,95640.92
2022-08-14T19:31:56.175Z,95637.12
2022-08-14T19:34:55.451Z,95636.04
2022-08-14T19:38:09.302Z,95633.50
2022-08-14T19:41:51.918Z,95634.60
2022-08-14T19:45:07.115Z,95631.41
2022-08-14T19:48:23.411Z,95630.46
2022-08-14T19:51:20.198Z,95626.06
2022-08-14T19:54:17.574Z,95619.63
2022-08-14T19:57:21.408Z,95610.71
2022-08-14T20:00:35.569Z,95608.77
2022-08-14T20:04:46.022Z,95606.19
2022-08-14T20:08:00.340Z,95607.61
2022-08-14T20:11:19.229Z,95608.40
2022-08-14T20:14:51.895Z,95610.74
2022-08-14T20:17:47.362Z,95610.27
2022-08-14T20:20:51.509Z,95609.30
2022-08-14T20:24:30.459Z,95605.41
2022-08-14T20:27:44.067Z,95601.72
2022-08-14T20:31:37.436Z,95602.12
2022-08-14T20:34:51.338Z,95608.16
2022-08-14T20:38:31.753Z,95610.04
2022-08-14T20:41:51.657Z,95608.29
2022-08-14T20:44:59.170Z,95605.22
2022-08-14T20:48:12.439Z,95604.33
2022-08-14T20:51:23.912Z,95603.49
2022-08-14T20:54:50.475Z,95596.87
2022-08-14T20:58:38.734Z,95602.45
2022-08-14T21:01:55.211Z,95599.11
2022-08-14T21:04:53.752Z,95602.70
2022-08-14T21:11:26.682Z,95603.81
2022-08-14T21:14:51.770Z,95604.77
2022-08-14T21:18:20.452Z,95601.83
2022-08-14T21:21:41.099Z,95603.36
2022-08-14T21:25:01.633Z,95601.65
2022-08-14T21:28:30.190Z,95602.98
2022-08-14T21:31:51.091Z,95599.01
2022-08-14T21:35:20.469Z,95597.14
2022-08-14T21:39:00.433Z,95592.08
2022-08-14T21:45:36.369Z,95598.64
2022-08-14T21:48:50.473Z,95602.86
2022-08-14T21:52:50.582Z,95604.71
2022-08-14T21:55:59.368Z,95600.98
2022-08-14T21:59:07.788Z,95610.04
2022-08-14T22:02:32.854Z,95607.44
2022-08-14T22:05:37.483Z,95609.67
2022-08-14T22:08:52.779Z,95616.25
2022-08-14T22:12:08.123Z,95621.11
2022-08-14T22:15:18.369Z,95622.72
2022-08-14T22:18:20.565Z,95617.84
2022-08-14T22:21:37.416Z,95617.91
2022-08-14T22:24:53.744Z,95615.92
2022-08-14T22:28:07.372Z,95613.39
2022-08-14T22:31:34.760Z,95609.48
2022-08-14T22:34:44.698Z,95608.30
2022-08-14T22:38:36.125Z,95600.06
2022-08-14T22:41:31.534Z,95601.73
2022-08-14T22:44:46.367Z,95602.70
2022-08-14T22:48:00.335Z,95607.40
2022-08-14T22:51:09.483Z,95610.52
2022-08-14T22:54:52.718Z,95612.11
2022-08-14T22:57:58.176Z,95610.80
2022-08-14T23:01:01.622Z,95618.39
2022-08-14T23:04:34.231Z,95620.36
2022-08-14T23:08:57.017Z,95626.84
2022-08-14T23:11:08.332Z,95626.41
2022-08-14T23:22:26.214Z,95635.12
2022-08-14T23:33:56.838Z,95628.75
2022-08-14T23:48:55.715Z,95633.41
2022-08-14T23:52:50.151Z,95629.96
2022-08-14T23:57:03.997Z,95628.46
